createdAt,value
2023-02-13T00:00:25.058Z,58.17
2023-02-13T00:01:25.061Z,56.56
2023-02-13T00:02:25.165Z,54.79
2023-02-13T00:03:25.117Z,56.24
2023-02-13T00:04:25.047Z,54.14
2023-02-13T00:05:25.051Z,55.91
2023-02-13T00:06:25.048Z,56.07
2023-02-13T00:07:25.052Z,52.85
2023-02-13T00:08:25.020Z,54.30
2023-02-13T00:09:25.015Z,53.98
2023-02-13T00:10:25.063Z,55.59
2023-02-13T00:11:24.993Z,59.30
2023-02-13T00:12:25.042Z,53.82
2023-02-13T00:13:24.979Z,52.05
2023-02-13T00:14:24.985Z,54.14
2023-02-13T00:15:24.988Z,57.52
2023-02-13T00:16:24.976Z,57.04
2023-02-13T00:17:24.983Z,54.30
2023-02-13T00:18:24.967Z,55.11
2023-02-13T00:19:24.956Z,55.27
2023-02-13T00:20:24.979Z,54.14
2023-02-13T00:21:24.960Z,52.37
2023-02-13T00:22:24.935Z,53.50
2023-02-13T00:23:24.930Z,54.30
2023-02-13T00:24:24.944Z,53.82
2023-02-13T00:25:24.917Z,53.66
2023-02-13T00:26:24.915Z,56.72
2023-02-13T00:27:24.941Z,51.72
2023-02-13T00:28:24.960Z,52.37
2023-02-13T00:29:24.896Z,53.50
2023-02-13T00:30:24.885Z,52.69
2023-02-13T00:31:25.028Z,58.17
2023-02-13T00:32:24.897Z,58.01
2023-02-13T00:33:24.891Z,56.56
2023-02-13T00:34:24.879Z,57.20
2023-02-13T00:35:24.868Z,54.79
2023-02-13T00:36:24.869Z,55.59
2023-02-13T00:37:24.851Z,56.24
2023-02-13T00:38:24.853Z,56.72
2023-02-13T00:39:24.890Z,55.75
2023-02-13T00:40:24.835Z,56.07
2023-02-13T00:41:24.836Z,55.11
2023-02-13T00:42:24.820Z,54.46
2023-02-13T00:43:24.832Z,53.01
2023-02-13T00:44:24.811Z,53.33
2023-02-13T00:45:24.848Z,55.91
2023-02-13T00:46:24.856Z,54.62
2023-02-13T00:47:24.795Z,54.62
2023-02-13T00:48:24.785Z,53.33
2023-02-13T00:49:24.807Z,53.50
2023-02-13T00:50:24.790Z,53.98
2023-02-13T00:51:24.773Z,52.53
2023-02-13T00:52:24.770Z,57.20
2023-02-13T00:53:24.785Z,56.88
2023-02-13T00:54:24.755Z,56.07
2023-02-13T00:55:24.790Z,51.40
2023-02-13T00:56:24.739Z,56.72
2023-02-13T00:57:24.752Z,56.40
2023-02-13T00:58:24.802Z,57.36
2023-02-13T00:59:24.736Z,58.33
2023-02-13T01:00:24.720Z,55.91
2023-02-13T01:01:24.779Z,53.33
2023-02-13T01:02:24.720Z,52.69
2023-02-13T01:03:24.767Z,56.88
2023-02-13T01:04:24.708Z,54.95
2023-02-13T01:05:24.717Z,55.11
2023-02-13T01:06:24.699Z,58.33
2023-02-13T01:07:24.702Z,57.52
2023-02-13T01:08:24.678Z,58.49
2023-02-13T01:09:24.672Z,56.07
2023-02-13T01:10:24.720Z,55.91
2023-02-13T01:11:24.656Z,55.75
2023-02-13T01:12:24.664Z,57.36
2023-02-13T01:13:24.648Z,57.85
2023-02-13T01:14:24.663Z,54.62
2023-02-13T01:15:24.652Z,56.88
2023-02-13T01:16:24.871Z,54.46
2023-02-13T01:17:24.651Z,55.59
2023-02-13T01:18:24.621Z,54.95
2023-02-13T01:19:24.627Z,53.82
2023-02-13T01:20:24.648Z,57.52
2023-02-13T01:21:24.644Z,52.21
2023-02-13T01:22:24.604Z,53.17
2023-02-13T01:23:24.606Z,57.04
2023-02-13T01:24:24.597Z,53.66
2023-02-13T01:25:24.585Z,56.40
2023-02-13T01:26:24.580Z,57.69
2023-02-13T01:27:24.606Z,56.24
2023-02-13T01:28:24.658Z,56.24
2023-02-13T01:29:24.590Z,51.88
2023-02-13T01:30:24.580Z,56.56
2023-02-13T01:31:24.675Z,55.91
2023-02-13T01:32:24.564Z,55.59
2023-02-13T01:33:24.589Z,59.78
2023-02-13T01:34:24.537Z,58.49
2023-02-13T01:35:24.537Z,53.82
2023-02-13T01:36:24.530Z,54.79
2023-02-13T01:37:24.523Z,57.52
2023-02-13T01:38:24.538Z,50.27
2023-02-13T01:39:24.534Z,53.66
2023-02-13T01:40:24.494Z,56.88
2023-02-13T01:41:24.529Z,52.05
2023-02-13T01:42:24.483Z,55.91
2023-02-13T01:43:24.477Z,53.98
2023-02-13T01:44:24.504Z,59.46
2023-02-13T01:45:24.467Z,52.69
2023-02-13T01:46:24.536Z,58.81
2023-02-13T01:47:24.474Z,57.52
2023-02-13T01:48:24.471Z,55.75
2023-02-13T01:49:24.461Z,54.62
2023-02-13T01:50:24.459Z,59.46
2023-02-13T01:51:24.461Z,56.88
2023-02-13T01:52:24.443Z,55.27
2023-02-13T01:53:24.450Z,55.27
2023-02-13T01:54:24.421Z,60.42
2023-02-13T01:55:24.417Z,53.01
2023-02-13T01:56:24.420Z,50.92
2023-02-13T01:57:24.421Z,54.62
2023-02-13T01:58:24.421Z,56.72
2023-02-13T01:59:24.384Z,53.01
2023-02-13T02:00:24.414Z,52.85
2023-02-13T02:01:24.481Z,51.24
2023-02-13T02:02:24.528Z,59.78
2023-02-13T02:03:24.391Z,57.85
2023-02-13T02:04:24.380Z,54.95
2023-02-13T02:05:24.387Z,59.30
2023-02-13T02:06:24.379Z,55.43
2023-02-13T02:07:24.361Z,51.56
2023-02-13T02:08:24.372Z,55.91
2023-02-13T02:09:24.359Z,57.69
2023-02-13T02:10:24.340Z,55.43
2023-02-13T02:11:24.324Z,50.76
2023-02-13T02:12:24.334Z,56.88
2023-02-13T02:13:24.309Z,59.46
2023-02-13T02:14:24.335Z,57.85
2023-02-13T02:15:24.330Z,54.79
2023-02-13T02:16:24.360Z,56.07
2023-02-13T02:17:24.288Z,53.98
2023-02-13T02:18:24.294Z,58.49
2023-02-13T02:19:24.277Z,58.33
2023-02-13T02:20:24.279Z,57.20
2023-02-13T02:21:24.288Z,56.40
2023-02-13T02:22:24.260Z,55.59
2023-02-13T02:23:24.253Z,60.75
2023-02-13T02:24:24.255Z,56.56
2023-02-13T02:25:24.244Z,60.59
2023-02-13T02:26:24.241Z,57.20
2023-02-13T02:27:24.243Z,53.50
2023-02-13T02:28:24.253Z,59.46
2023-02-13T02:29:24.231Z,56.72
2023-02-13T02:30:24.269Z,56.07
2023-02-13T02:31:24.224Z,56.88
2023-02-13T02:32:24.236Z,59.46
2023-02-13T02:33:24.202Z,58.01
2023-02-13T02:34:24.199Z,57.04
2023-02-13T02:35:24.211Z,58.65
2023-02-13T02:36:24.209Z,57.85
2023-02-13T02:37:24.197Z,55.27
2023-02-13T02:38:24.194Z,59.78
2023-02-13T02:39:24.172Z,63.16
2023-02-13T02:40:24.164Z,58.01
2023-02-13T02:41:24.158Z,58.81
2023-02-13T02:42:24.169Z,58.65
2023-02-13T02:43:24.149Z,57.69
2023-02-13T02:44:24.171Z,58.17
2023-02-13T02:45:24.134Z,57.85
2023-02-13T02:46:24.183Z,61.39
2023-02-13T02:47:24.114Z,60.59
2023-02-13T02:48:24.116Z,60.10
2023-02-13T02:49:24.125Z,60.26
2023-02-13T02:50:24.134Z,62.52
2023-02-13T02:51:24.100Z,59.14
2023-02-13T02:52:24.093Z,64.29
2023-02-13T02:53:24.078Z,61.23
2023-02-13T02:54:24.083Z,60.91
2023-02-13T02:55:24.092Z,58.65
2023-02-13T02:56:24.096Z,63.65
2023-02-13T02:57:24.058Z,62.36
2023-02-13T02:58:24.059Z,61.07
2023-02-13T02:59:24.055Z,60.59
2023-02-13T03:00:24.067Z,60.42
2023-02-13T03:01:24.103Z,59.94
2023-02-13T03:02:24.031Z,61.55
2023-02-13T03:03:24.040Z,55.43
2023-02-13T03:04:24.082Z,57.36
2023-02-13T03:05:24.015Z,59.46
2023-02-13T03:06:24.013Z,59.78
2023-02-13T03:07:24.031Z,61.39
2023-02-13T03:08:23.998Z,59.30
2023-02-13T03:09:23.992Z,62.04
2023-02-13T03:10:23.990Z,58.49
2023-02-13T03:11:24.004Z,59.14
2023-02-13T03:12:23.965Z,61.23
2023-02-13T03:13:23.965Z,58.01
2023-02-13T03:14:23.967Z,56.40
2023-02-13T03:15:23.973Z,56.24
2023-02-13T03:16:24.005Z,60.59
2023-02-13T03:17:23.972Z,59.78
2023-02-13T03:18:23.969Z,58.49
2023-02-13T03:19:23.966Z,59.78
2023-02-13T03:20:23.958Z,60.26
2023-02-13T03:21:23.959Z,57.36
2023-02-13T03:22:23.944Z,60.59
2023-02-13T03:23:23.931Z,55.91
2023-02-13T03:24:23.940Z,60.59
2023-02-13T03:25:23.935Z,59.14
2023-02-13T03:26:23.905Z,62.68
2023-02-13T03:27:23.897Z,62.52
2023-02-13T03:28:23.932Z,61.07
2023-02-13T03:29:23.878Z,59.78
2023-02-13T03:30:23.941Z,59.78
2023-02-13T03:31:23.898Z,58.01
2023-02-13T03:32:23.874Z,64.13
2023-02-13T03:33:23.863Z,58.97
2023-02-13T03:34:23.866Z,63.33
2023-02-13T03:35:23.854Z,62.84
2023-02-13T03:36:23.874Z,59.30
2023-02-13T03:37:23.848Z,62.20
2023-02-13T03:38:23.843Z,61.39
2023-02-13T03:39:23.832Z,58.17
2023-02-13T03:40:23.832Z,59.78
2023-02-13T03:41:23.819Z,60.26
2023-02-13T03:42:23.848Z,59.94
2023-02-13T03:43:23.801Z,63.49
2023-02-13T03:44:23.806Z,57.52
2023-02-13T03:45:23.791Z,59.94
2023-02-13T03:46:23.797Z,60.10
2023-02-13T03:47:23.792Z,58.49
2023-02-13T03:48:23.809Z,59.30
2023-02-13T03:49:23.774Z,59.94
2023-02-13T03:50:23.770Z,60.91
2023-02-13T03:51:23.765Z,60.10
2023-02-13T03:52:23.771Z,60.75
2023-02-13T03:53:23.763Z,61.87
2023-02-13T03:54:23.797Z,59.30
2023-02-13T03:55:23.742Z,60.10
2023-02-13T03:56:23.747Z,60.59
2023-02-13T03:57:23.743Z,62.52
2023-02-13T03:58:23.729Z,60.26
2023-02-13T03:59:23.714Z,59.78
2023-02-13T04:00:23.733Z,62.68
2023-02-13T04:01:23.762Z,57.69
2023-02-13T04:02:23.740Z,57.04
2023-02-13T04:03:23.696Z,63.49
2023-02-13T04:04:23.693Z,59.46
2023-02-13T04:05:23.712Z,62.04
2023-02-13T04:06:23.683Z,60.10
2023-02-13T04:07:23.677Z,61.55
2023-02-13T04:08:23.665Z,59.46
2023-02-13T04:09:23.659Z,60.91
2023-02-13T04:10:23.690Z,61.23
2023-02-13T04:11:23.653Z,62.20
2023-02-13T04:12:23.675Z,61.87
2023-02-13T04:13:23.651Z,62.04
2023-02-13T04:14:23.642Z,61.87
2023-02-13T04:15:23.635Z,61.71
2023-02-13T04:16:23.684Z,63.00
2023-02-13T04:17:23.658Z,60.59
2023-02-13T04:18:23.627Z,61.87
2023-02-13T04:19:23.626Z,62.36
2023-02-13T04:20:23.611Z,62.20
2023-02-13T04:21:23.600Z,61.87
2023-02-13T04:22:23.602Z,61.55
2023-02-13T04:23:23.594Z,61.71
2023-02-13T04:24:23.588Z,60.42
2023-02-13T04:25:23.578Z,59.62
2023-02-13T04:26:23.573Z,61.71
2023-02-13T04:27:23.560Z,59.78
2023-02-13T04:28:23.654Z,60.26
2023-02-13T04:29:23.561Z,60.10
2023-02-13T04:30:23.609Z,63.33
2023-02-13T04:31:23.646Z,57.20
2023-02-13T04:32:23.543Z,59.30
2023-02-13T04:33:23.535Z,60.91
2023-02-13T04:34:23.560Z,62.68
2023-02-13T04:35:23.520Z,59.78
2023-02-13T04:36:23.528Z,63.65
2023-02-13T04:37:23.535Z,62.20
2023-02-13T04:38:23.521Z,60.10
2023-02-13T04:39:23.501Z,61.07
2023-02-13T04:40:23.500Z,59.14
2023-02-13T04:41:23.495Z,61.87
2023-02-13T04:42:23.519Z,62.04
2023-02-13T04:43:23.486Z,60.26
2023-02-13T04:44:23.477Z,61.23
2023-02-13T04:45:23.469Z,60.10
2023-02-13T04:46:23.518Z,61.55
2023-02-13T04:47:23.474Z,61.07
2023-02-13T04:48:23.520Z,60.75
2023-02-13T04:49:23.447Z,62.04
2023-02-13T04:50:23.458Z,59.94
2023-02-13T04:51:23.445Z,62.04
2023-02-13T04:52:23.438Z,62.84
2023-02-13T04:53:23.420Z,62.04
2023-02-13T04:54:23.457Z,62.20
2023-02-13T04:55:23.419Z,60.75
2023-02-13T04:56:23.526Z,59.46
2023-02-13T04:57:23.445Z,61.71
2023-02-13T04:58:23.408Z,61.71
2023-02-13T04:59:23.405Z,60.59
2023-02-13T05:00:23.433Z,62.68
2023-02-13T05:01:23.435Z,61.07
2023-02-13T05:02:23.426Z,58.97
2023-02-13T05:03:23.383Z,61.39
2023-02-13T05:04:23.445Z,63.33
2023-02-13T05:05:23.370Z,62.36
2023-02-13T05:06:23.391Z,63.16
2023-02-13T05:07:23.412Z,63.81
2023-02-13T05:08:23.375Z,62.36
2023-02-13T05:09:23.369Z,60.75
2023-02-13T05:10:23.354Z,59.62
2023-02-13T05:11:23.360Z,63.16
2023-02-13T05:12:23.395Z,63.33
2023-02-13T05:13:23.324Z,63.65
2023-02-13T05:14:23.337Z,61.39
2023-02-13T05:15:23.327Z,63.65
2023-02-13T05:16:23.315Z,63.65
2023-02-13T05:17:23.330Z,62.04
2023-02-13T05:18:23.308Z,59.94
2023-02-13T05:19:23.304Z,60.91
2023-02-13T05:20:23.310Z,60.59
2023-02-13T05:21:23.304Z,60.26
2023-02-13T05:22:23.306Z,58.49
2023-02-13T05:23:23.269Z,61.39
2023-02-13T05:24:23.266Z,62.20
2023-02-13T05:25:23.295Z,60.75
2023-02-13T05:26:23.304Z,62.52
2023-02-13T05:27:23.261Z,61.23
2023-02-13T05:28:23.299Z,60.91
2023-02-13T05:29:23.290Z,62.04
2023-02-13T05:30:23.235Z,60.91
2023-02-13T05:31:23.319Z,61.71
2023-02-13T05:32:23.265Z,62.20
2023-02-13T05:33:23.249Z,62.68
2023-02-13T05:34:23.223Z,62.68
2023-02-13T05:35:23.207Z,61.39
2023-02-13T05:36:23.211Z,61.23
2023-02-13T05:37:23.192Z,61.23
2023-02-13T05:38:23.220Z,62.20
2023-02-13T05:39:23.183Z,63.16
2023-02-13T05:40:23.204Z,60.59
2023-02-13T05:41:23.171Z,60.42
2023-02-13T05:42:23.172Z,61.71
2023-02-13T05:43:23.168Z,60.26
2023-02-13T05:44:23.161Z,61.71
2023-02-13T05:45:23.169Z,63.33
2023-02-13T05:46:23.207Z,63.81
2023-02-13T05:47:23.148Z,63.33
2023-02-13T05:48:23.152Z,62.84
2023-02-13T05:49:23.139Z,60.10
2023-02-13T05:50:23.139Z,60.91
2023-02-13T05:51:23.114Z,63.33
2023-02-13T05:52:23.166Z,64.13
2023-02-13T05:53:23.115Z,60.75
2023-02-13T05:54:23.099Z,61.55
2023-02-13T05:55:23.093Z,63.81
2023-02-13T05:56:23.095Z,62.68
2023-02-13T05:57:23.085Z,61.71
2023-02-13T05:58:23.115Z,62.20
2023-02-13T05:59:24.045Z,61.39
2023-02-13T06:00:23.078Z,59.78
2023-02-13T06:01:23.063Z,58.33
2023-02-13T06:02:23.169Z,63.65
2023-02-13T06:03:23.094Z,61.87
2023-02-13T06:04:23.093Z,62.36
2023-02-13T06:05:23.031Z,63.97
2023-02-13T06:06:23.047Z,63.65
2023-02-13T06:07:23.033Z,62.36
2023-02-13T06:08:23.014Z,64.94
2023-02-13T06:09:23.010Z,64.94
2023-02-13T06:10:23.031Z,63.81
2023-02-13T06:11:22.998Z,61.71
2023-02-13T06:12:23.004Z,62.20
2023-02-13T06:13:23.012Z,63.65
2023-02-13T06:14:22.989Z,62.04
2023-02-13T06:15:23.007Z,63.65
2023-02-13T06:16:23.016Z,62.36
2023-02-13T06:17:22.974Z,63.81
2023-02-13T06:18:22.986Z,63.65
2023-02-13T06:19:22.961Z,62.84
2023-02-13T06:20:22.960Z,63.16
2023-02-13T06:21:22.969Z,61.71
2023-02-13T06:22:22.980Z,63.97
2023-02-13T06:23:22.952Z,64.13
2023-02-13T06:24:22.947Z,62.84
2023-02-13T06:25:22.925Z,63.49
2023-02-13T06:26:22.955Z,63.16
2023-02-13T06:27:22.920Z,63.33
2023-02-13T06:28:23.002Z,65.74
2023-02-13T06:29:22.916Z,64.29
2023-02-13T06:30:23.004Z,64.78
2023-02-13T06:31:23.007Z,64.45
2023-02-13T06:32:22.933Z,63.49
2023-02-13T06:33:22.909Z,64.13
2023-02-13T06:34:22.889Z,64.78
2023-02-13T06:35:22.885Z,65.90
2023-02-13T06:36:22.870Z,62.20
2023-02-13T06:37:22.868Z,62.84
2023-02-13T06:38:22.891Z,63.97
2023-02-13T06:39:22.855Z,64.61
2023-02-13T06:40:22.859Z,64.94
2023-02-13T06:41:22.849Z,64.29
2023-02-13T06:42:22.846Z,62.68
2023-02-13T06:43:22.891Z,64.45
2023-02-13T06:44:22.831Z,64.61
2023-02-13T06:45:22.824Z,63.49
2023-02-13T06:46:22.852Z,64.78
2023-02-13T06:47:22.832Z,65.26
2023-02-13T06:48:22.820Z,64.29
2023-02-13T06:49:22.825Z,63.33
2023-02-13T06:50:22.843Z,64.13
2023-02-13T06:51:22.802Z,62.20
2023-02-13T06:52:22.805Z,62.84
2023-02-13T06:53:22.796Z,61.23
2023-02-13T06:54:31.553Z,60.91
2023-02-13T06:55:23.825Z,62.36
2023-02-13T06:56:22.796Z,65.26
2023-02-13T06:57:22.768Z,65.42
2023-02-13T06:58:22.776Z,64.29
2023-02-13T06:59:22.780Z,65.42
2023-02-13T07:00:22.760Z,64.13
2023-02-13T07:01:22.831Z,63.33
2023-02-13T07:02:22.803Z,64.61
2023-02-13T07:03:22.744Z,63.81
2023-02-13T07:04:22.763Z,64.45
2023-02-13T07:05:22.722Z,63.97
2023-02-13T07:06:22.719Z,66.06
2023-02-13T07:07:22.740Z,66.06
2023-02-13T07:08:22.711Z,65.74
2023-02-13T07:09:22.766Z,66.71
2023-02-13T07:10:22.720Z,67.19
2023-02-13T07:11:22.688Z,65.90
2023-02-13T07:12:22.701Z,64.94
2023-02-13T07:13:22.703Z,66.55
2023-02-13T07:14:22.674Z,64.78
2023-02-13T07:15:22.688Z,64.45
2023-02-13T07:16:22.686Z,64.45
2023-02-13T07:17:22.677Z,65.42
2023-02-13T07:18:22.674Z,66.39
2023-02-13T07:19:22.644Z,63.65
2023-02-13T07:20:22.700Z,64.61
2023-02-13T07:21:22.643Z,64.13
2023-02-13T07:22:22.627Z,63.33
2023-02-13T07:23:22.624Z,63.65
2023-02-13T07:24:22.624Z,65.74
2023-02-13T07:25:22.632Z,64.45
2023-02-13T07:26:22.611Z,65.42
2023-02-13T07:27:22.617Z,64.29
2023-02-13T07:28:22.656Z,64.61
2023-02-13T07:29:22.596Z,63.16
2023-02-13T07:30:22.592Z,65.26
2023-02-13T07:31:22.695Z,63.65
2023-02-13T07:32:22.574Z,63.65
2023-02-13T07:33:22.583Z,63.65
2023-02-13T07:34:22.571Z,65.58
2023-02-13T07:35:22.566Z,64.78
2023-02-13T07:36:22.567Z,64.94
2023-02-13T07:37:22.578Z,62.52
2023-02-13T07:38:22.557Z,63.97
2023-02-13T07:39:22.537Z,64.45
2023-02-13T07:40:22.543Z,61.71
2023-02-13T07:41:22.531Z,61.23
2023-02-13T07:42:22.520Z,62.20
2023-02-13T07:43:22.532Z,61.07
2023-02-13T07:44:22.520Z,60.59
2023-02-13T07:45:22.506Z,60.59
2023-02-13T07:46:22.581Z,62.68
2023-02-13T07:47:22.505Z,61.71
2023-02-13T07:48:22.497Z,61.23
2023-02-13T07:49:22.516Z,58.97
2023-02-13T07:50:22.487Z,60.42
2023-02-13T07:51:22.471Z,59.62
2023-02-13T07:52:22.481Z,60.91
2023-02-13T07:53:22.458Z,58.17
2023-02-13T07:54:22.450Z,57.36
2023-02-13T07:55:22.480Z,57.52
2023-02-13T07:56:22.444Z,56.56
2023-02-13T07:57:22.469Z,56.56
2023-02-13T07:58:22.461Z,60.91
2023-02-13T07:59:22.420Z,58.33
2023-02-13T08:00:22.434Z,58.17
2023-02-13T08:01:22.580Z,59.62
2023-02-13T08:02:22.422Z,56.07
2023-02-13T08:03:22.397Z,57.20
2023-02-13T08:04:23.595Z,59.62
2023-02-13T08:05:22.384Z,57.85
2023-02-13T08:06:22.368Z,59.14
2023-02-13T08:07:22.349Z,60.26
2023-02-13T08:08:22.416Z,56.07
2023-02-13T08:09:22.376Z,57.36
2023-02-13T08:10:22.316Z,58.97
2023-02-13T08:11:22.320Z,58.49
2023-02-13T08:12:22.305Z,57.52
2023-02-13T08:13:22.311Z,58.01
2023-02-13T08:14:22.282Z,58.17
2023-02-13T08:15:22.281Z,57.85
2023-02-13T08:16:22.315Z,57.85
2023-02-13T08:17:22.258Z,58.65
2023-02-13T08:18:22.264Z,59.78
2023-02-13T08:19:22.263Z,57.04
2023-02-13T08:20:22.274Z,58.33
2023-02-13T08:21:22.242Z,58.17
2023-02-13T08:22:22.242Z,56.40
2023-02-13T08:23:22.292Z,58.01
2023-02-13T08:24:22.200Z,58.65
2023-02-13T08:25:22.191Z,59.94
2023-02-13T08:26:22.323Z,57.36
2023-02-13T08:27:22.188Z,60.42
2023-02-13T08:28:22.209Z,57.20
2023-02-13T08:29:22.152Z,58.01
2023-02-13T08:30:22.144Z,56.88
2023-02-13T08:31:22.244Z,58.17
2023-02-13T08:32:22.205Z,57.69
2023-02-13T08:33:22.121Z,56.40
2023-02-13T08:34:22.121Z,58.33
2023-02-13T08:35:22.106Z,58.33
2023-02-13T08:36:22.115Z,57.52
2023-02-13T08:37:22.151Z,58.65
2023-02-13T08:38:22.090Z,55.91
2023-02-13T08:39:22.117Z,56.88
2023-02-13T08:40:24.436Z,58.17
2023-02-13T08:41:22.056Z,56.88
2023-02-13T08:42:22.063Z,55.91
2023-02-13T08:43:22.063Z,57.69
2023-02-13T08:44:22.049Z,57.36
2023-02-13T08:45:22.031Z,54.95
2023-02-13T08:46:22.071Z,58.81
2023-02-13T08:47:22.013Z,57.20
2023-02-13T08:48:22.023Z,57.85
2023-02-13T08:49:22.013Z,59.30
2023-02-13T08:50:21.990Z,55.75
2023-02-13T08:51:22.004Z,56.24
2023-02-13T08:52:21.975Z,56.56
2023-02-13T08:53:21.974Z,57.85
2023-02-13T08:54:21.960Z,57.36
2023-02-13T08:55:21.976Z,57.52
2023-02-13T08:56:21.945Z,58.49
2023-02-13T08:57:21.928Z,54.46
2023-02-13T08:58:21.920Z,57.20
2023-02-13T08:59:21.930Z,56.56
2023-02-13T09:00:21.918Z,57.04
2023-02-13T09:01:21.941Z,57.04
2023-02-13T09:02:21.935Z,55.91
2023-02-13T09:03:21.888Z,56.56
2023-02-13T09:04:21.890Z,58.49
2023-02-13T09:05:21.876Z,56.07
2023-02-13T09:06:21.919Z,56.56
2023-02-13T09:07:21.909Z,58.01
2023-02-13T09:08:21.853Z,57.04
2023-02-13T09:09:21.835Z,58.33
2023-02-13T09:10:21.839Z,56.56
2023-02-13T09:11:21.839Z,55.27
2023-02-13T09:12:21.829Z,57.69
2023-02-13T09:13:21.802Z,57.20
2023-02-13T09:14:23.763Z,58.49
2023-02-13T09:15:21.789Z,58.49
2023-02-13T09:16:21.847Z,57.04
2023-02-13T09:17:21.779Z,56.72
2023-02-13T09:18:21.766Z,56.88
2023-02-13T09:19:21.780Z,55.75
2023-02-13T09:20:21.782Z,57.52
2023-02-13T09:21:21.771Z,55.43
2023-02-13T09:22:21.746Z,55.27
2023-02-13T09:23:21.736Z,57.36
2023-02-13T09:24:21.736Z,57.20
2023-02-13T09:25:21.804Z,55.91
2023-02-13T09:26:21.747Z,54.95
2023-02-13T09:27:21.704Z,55.75
2023-02-13T09:28:21.765Z,58.49
2023-02-13T09:29:21.691Z,56.56
2023-02-13T09:30:21.713Z,57.04
2023-02-13T09:31:21.783Z,58.49
2023-02-13T09:32:21.694Z,58.01
2023-02-13T09:33:21.666Z,57.52
2023-02-13T09:34:21.660Z,57.69
2023-02-13T09:35:21.671Z,55.43
2023-02-13T09:36:21.678Z,56.72
2023-02-13T09:37:21.640Z,56.72
2023-02-13T09:38:21.658Z,58.01
2023-02-13T09:39:21.636Z,55.75
2023-02-13T09:40:21.620Z,56.88
2023-02-13T09:41:21.612Z,56.56
2023-02-13T09:42:21.617Z,58.17
2023-02-13T09:43:21.595Z,53.98
2023-02-13T09:44:21.606Z,55.43
2023-02-13T09:45:21.580Z,56.72
2023-02-13T09:46:21.741Z,55.75
2023-02-13T09:47:21.566Z,56.40
2023-02-13T09:48:21.573Z,54.14
2023-02-13T09:49:21.552Z,55.91
2023-02-13T09:50:21.686Z,54.79
2023-02-13T09:51:21.541Z,56.72
2023-02-13T09:52:21.535Z,56.07
2023-02-13T09:53:21.521Z,55.75
2023-02-13T09:54:21.522Z,56.24
2023-02-13T09:55:21.570Z,54.46
2023-02-13T09:56:21.500Z,53.98
2023-02-13T09:57:21.493Z,55.27
2023-02-13T09:58:21.484Z,56.56
2023-02-13T09:59:21.486Z,55.75
2023-02-13T10:00:21.586Z,56.88
2023-02-13T10:01:21.572Z,55.59
2023-02-13T10:02:21.477Z,56.07
2023-02-13T10:03:21.464Z,55.91
2023-02-13T10:04:21.447Z,55.59
2023-02-13T10:05:21.469Z,54.46
2023-02-13T10:06:21.441Z,55.59
2023-02-13T10:07:21.446Z,55.75
2023-02-13T10:08:21.440Z,54.79
2023-02-13T10:09:21.426Z,55.43
2023-02-13T10:10:21.447Z,56.40
2023-02-13T10:11:21.402Z,55.11
2023-02-13T10:12:21.388Z,56.56
2023-02-13T10:13:22.124Z,55.43
2023-02-13T10:14:21.376Z,54.46
2023-02-13T10:15:21.369Z,53.98
2023-02-13T10:16:21.424Z,56.07
2023-02-13T10:17:21.357Z,55.75
2023-02-13T10:18:21.401Z,56.24
2023-02-13T10:19:21.340Z,54.30
2023-02-13T10:20:21.353Z,54.79
2023-02-13T10:21:21.332Z,54.46
2023-02-13T10:22:21.313Z,57.20
2023-02-13T10:23:21.321Z,55.75
2023-02-13T10:24:21.311Z,54.95
2023-02-13T10:25:21.305Z,55.27
2023-02-13T10:26:21.310Z,55.91
2023-02-13T10:27:21.282Z,55.75
2023-02-13T10:28:21.310Z,55.91
2023-02-13T10:29:21.264Z,55.59
2023-02-13T10:30:21.275Z,54.79
2023-02-13T10:31:21.375Z,55.59
2023-02-13T10:32:21.430Z,53.17
2023-02-13T10:33:21.257Z,55.75
2023-02-13T10:34:21.227Z,55.91
2023-02-13T10:35:21.226Z,56.56
2023-02-13T10:36:21.263Z,56.24
2023-02-13T10:37:21.213Z,55.11
2023-02-13T10:38:21.207Z,55.91
2023-02-13T10:39:21.191Z,53.17
2023-02-13T10:40:21.199Z,56.07
2023-02-13T10:41:21.178Z,56.40
2023-02-13T10:42:21.189Z,55.91
2023-02-13T10:43:21.165Z,55.75
2023-02-13T10:44:21.153Z,55.75
2023-02-13T10:45:21.148Z,57.04
2023-02-13T10:46:21.193Z,57.52
2023-02-13T10:47:21.135Z,55.59
2023-02-13T10:48:21.126Z,55.91
2023-02-13T10:49:21.168Z,54.30
2023-02-13T10:50:21.131Z,55.43
2023-02-13T10:51:21.097Z,55.11
2023-02-13T10:52:21.089Z,55.91
2023-02-13T10:53:21.099Z,56.07
2023-02-13T10:54:21.090Z,55.43
2023-02-13T10:55:21.111Z,56.24
2023-02-13T10:56:21.067Z,55.75
2023-02-13T10:57:21.067Z,56.72
2023-02-13T10:58:21.066Z,55.59
2023-02-13T10:59:21.041Z,54.95
2023-02-13T11:00:21.050Z,54.79
2023-02-13T11:01:21.045Z,56.24
2023-02-13T11:02:21.024Z,53.01
2023-02-13T11:03:21.025Z,55.75
2023-02-13T11:04:21.065Z,56.40
2023-02-13T11:05:20.985Z,55.11
2023-02-13T11:06:20.988Z,56.72
2023-02-13T11:07:20.981Z,56.24
2023-02-13T11:08:20.965Z,56.07
2023-02-13T11:09:20.979Z,56.72
2023-02-13T11:10:20.959Z,57.85
2023-02-13T11:11:20.969Z,57.52
2023-02-13T11:12:20.955Z,54.62
2023-02-13T11:13:20.940Z,57.52
2023-02-13T11:14:20.929Z,54.95
2023-02-13T11:15:20.904Z,54.30
2023-02-13T11:16:20.952Z,57.85
2023-02-13T11:17:20.889Z,56.07
2023-02-13T11:18:20.919Z,56.07
2023-02-13T11:19:20.889Z,56.07
2023-02-13T11:20:20.868Z,57.04
2023-02-13T11:21:20.874Z,56.88
2023-02-13T11:22:20.863Z,57.85
2023-02-13T11:23:20.841Z,56.24
2023-02-13T11:24:20.847Z,56.07
2023-02-13T11:25:20.835Z,56.88
2023-02-13T11:26:20.834Z,58.17
2023-02-13T11:27:22.154Z,58.65
2023-02-13T11:28:20.862Z,55.11
2023-02-13T11:29:20.977Z,57.20
2023-02-13T11:30:20.790Z,58.01
2023-02-13T11:31:20.970Z,56.56
2023-02-13T11:32:20.903Z,55.27
2023-02-13T11:33:20.758Z,59.14
2023-02-13T11:34:20.771Z,58.49
2023-02-13T11:35:20.741Z,57.20
2023-02-13T11:36:20.742Z,59.78
2023-02-13T11:37:20.775Z,59.46
2023-02-13T11:38:20.730Z,57.04
2023-02-13T11:39:20.719Z,58.49
2023-02-13T11:40:20.702Z,59.30
2023-02-13T11:41:20.701Z,58.49
2023-02-13T11:42:20.685Z,57.36
2023-02-13T11:43:20.685Z,56.56
2023-02-13T11:44:20.661Z,58.17
2023-02-13T11:45:20.676Z,60.26
2023-02-13T11:46:20.677Z,57.52
2023-02-13T11:47:20.645Z,59.62
2023-02-13T11:48:20.639Z,60.10
2023-02-13T11:49:20.623Z,58.17
2023-02-13T11:50:20.633Z,58.33
2023-02-13T11:51:20.627Z,58.81
2023-02-13T11:52:20.621Z,56.56
2023-02-13T11:53:20.619Z,58.49
2023-02-13T11:54:20.600Z,59.78
2023-02-13T11:55:20.574Z,56.40
2023-02-13T11:56:20.564Z,58.65
2023-02-13T11:57:20.557Z,57.52
2023-02-13T11:58:20.731Z,59.62
2023-02-13T11:59:20.548Z,58.17
2023-02-13T12:00:20.543Z,57.36
2023-02-13T12:01:20.527Z,57.69
2023-02-13T12:02:20.582Z,57.69
2023-02-13T12:03:20.650Z,58.65
2023-02-13T12:04:20.517Z,58.97
2023-02-13T12:05:20.522Z,58.65
2023-02-13T12:06:20.489Z,57.36
2023-02-13T12:07:20.495Z,57.20
2023-02-13T12:08:20.469Z,56.56
2023-02-13T12:09:20.491Z,59.46
2023-02-13T12:10:20.454Z,59.14
2023-02-13T12:11:20.446Z,58.65
2023-02-13T12:12:20.441Z,58.17
2023-02-13T12:13:20.435Z,57.20
2023-02-13T12:14:20.439Z,57.85
2023-02-13T12:15:20.435Z,57.20
2023-02-13T12:16:20.454Z,58.97
2023-02-13T12:17:30.946Z,57.52
2023-02-13T12:18:21.392Z,59.46
2023-02-13T12:19:20.384Z,59.62
2023-02-13T12:20:20.395Z,58.97
2023-02-13T12:21:20.364Z,59.62
2023-02-13T12:22:20.529Z,58.17
2023-02-13T12:23:20.352Z,58.65
2023-02-13T12:24:20.377Z,59.62
2023-02-13T12:25:20.358Z,58.17
2023-02-13T12:26:20.338Z,57.36
2023-02-13T12:27:20.340Z,58.33
2023-02-13T12:28:20.373Z,58.33
2023-02-13T12:29:20.449Z,57.69
2023-02-13T12:30:20.301Z,58.17
2023-02-13T12:31:20.340Z,59.30
2023-02-13T12:32:20.289Z,59.62
2023-02-13T12:33:20.292Z,59.46
2023-02-13T12:34:20.261Z,56.72
2023-02-13T12:35:20.251Z,55.59
2023-02-13T12:36:20.268Z,57.20
2023-02-13T12:37:20.243Z,58.33
2023-02-13T12:38:20.236Z,59.78
2023-02-13T12:39:20.233Z,58.17
2023-02-13T12:40:20.210Z,57.69
2023-02-13T12:41:20.212Z,57.85
2023-02-13T12:42:20.190Z,60.75
2023-02-13T12:43:20.211Z,56.24
2023-02-13T12:44:20.224Z,57.36
2023-02-13T12:45:20.168Z,56.24
2023-02-13T12:46:20.172Z,58.33
2023-02-13T12:47:20.153Z,55.43
2023-02-13T12:48:20.156Z,59.94
2023-02-13T12:49:20.144Z,60.10
2023-02-13T12:50:20.159Z,55.75
2023-02-13T12:51:20.136Z,59.30
2023-02-13T12:52:20.143Z,58.97